8 Max
7 km/h
5 Mini

LFMY 172230Z AUTO 05004KT 9999 FEW028 04/03 Q1027

TAF LFMY 151441Z 1514/1609 CNL